createdAt,value
2018-03-31T00:01:04.750Z,93402.35
2018-03-31T00:03:31.016Z,93395.22
2018-03-31T00:05:57.095Z,93393.83
2018-03-31T00:08:23.227Z,93392.40
2018-03-31T00:10:49.352Z,93375.50
2018-03-31T00:13:15.457Z,93376.33
2018-03-31T00:15:42.753Z,93381.94
2018-03-31T00:18:08.894Z,93377.84
2018-03-31T00:20:34.987Z,93383.62
2018-03-31T00:23:01.492Z,93375.09
2018-03-31T00:25:27.740Z,93376.41
2018-03-31T00:27:53.895Z,93370.14
2018-03-31T00:30:20.010Z,93379.50
2018-03-31T00:32:46.158Z,93391.45
2018-03-31T00:35:12.347Z,93397.44
2018-03-31T00:37:38.501Z,93390.59
2018-03-31T00:40:04.788Z,93387.23
2018-03-31T00:42:30.970Z,93395.29
2018-03-31T00:44:57.123Z,93401.53
2018-03-31T00:47:23.265Z,93394.08
2018-03-31T00:49:49.474Z,93401.37
2018-03-31T00:52:15.561Z,93394.63
2018-03-31T00:54:42.712Z,93390.34
2018-03-31T00:57:08.866Z,93381.50
2018-03-31T00:59:34.974Z,93392.94
2018-03-31T01:02:01.082Z,93396.72
2018-03-31T01:04:40.594Z,93394.15
2018-03-31T01:07:06.786Z,93390.78
2018-03-31T01:09:32.886Z,93389.45
2018-03-31T01:11:58.952Z,93380.10
2018-03-31T01:14:27.163Z,93377.18
2018-03-31T01:16:53.285Z,93364.34
2018-03-31T01:19:19.531Z,93364.85
2018-03-31T01:21:46.171Z,93360.29
2018-03-31T01:24:12.473Z,93362.92
2018-03-31T01:26:38.852Z,93363.48
2018-03-31T01:29:05.075Z,93370.56
2018-03-31T01:31:31.183Z,93360.70
2018-03-31T01:33:57.358Z,93364.98
2018-03-31T01:36:23.958Z,93363.27
2018-03-31T01:38:50.348Z,93359.05
2018-03-31T01:41:16.455Z,93348.08
2018-03-31T01:43:44.688Z,93346.25
2018-03-31T01:46:10.777Z,93349.10
2018-03-31T01:48:36.910Z,93358.42
2018-03-31T01:51:02.998Z,93353.73
2018-03-31T01:53:29.151Z,93363.55
2018-03-31T01:55:55.296Z,93358.10
2018-03-31T01:58:21.406Z,93350.72
2018-03-31T02:00:47.472Z,93353.98
2018-03-31T02:03:13.538Z,93361.91
2018-03-31T02:05:39.745Z,93344.12
2018-03-31T02:08:05.866Z,93342.03
2018-03-31T02:10:31.928Z,93337.05
2018-03-31T02:12:58.039Z,93343.48
2018-03-31T02:15:24.243Z,93335.05
2018-03-31T02:17:50.343Z,93342.30
2018-03-31T02:20:16.471Z,93335.24
2018-03-31T02:22:42.553Z,93333.37
2018-03-31T02:25:08.776Z,93328.77
2018-03-31T02:27:34.911Z,93330.16
2018-03-31T02:30:01.069Z,93323.03
2018-03-31T02:32:27.170Z,93331.56
2018-03-31T02:35:08.705Z,93328.02
2018-03-31T02:37:34.824Z,93326.89
2018-03-31T02:40:00.901Z,93330.56
2018-03-31T02:42:27.011Z,93324.91
2018-03-31T02:44:54.253Z,93325.08
2018-03-31T02:47:20.341Z,93331.34
2018-03-31T02:49:46.462Z,93335.62
2018-03-31T02:52:12.547Z,93333.11
2018-03-31T02:54:42.510Z,93328.77
2018-03-31T02:57:08.683Z,93322.78
2018-03-31T02:59:34.849Z,93328.36
2018-03-31T03:02:00.953Z,93333.33
2018-03-31T03:04:27.116Z,93332.36
2018-03-31T03:06:53.182Z,93326.32
2018-03-31T03:09:19.320Z,93311.48
2018-03-31T03:11:45.482Z,93304.45
2018-03-31T03:14:15.502Z,93309.56
2018-03-31T03:16:41.581Z,93298.40
2018-03-31T03:19:07.728Z,93310.80
2018-03-31T03:21:33.855Z,93312.59
2018-03-31T03:24:03.285Z,93304.00
2018-03-31T03:26:29.396Z,93294.34
2018-03-31T03:28:55.535Z,93302.50
2018-03-31T03:31:21.638Z,93300.14
2018-03-31T03:33:47.878Z,93286.93
2018-03-31T03:36:13.953Z,93273.02
2018-03-31T03:38:40.007Z,93278.56
2018-03-31T03:41:06.138Z,93266.81
2018-03-31T03:43:32.272Z,93274.83
2018-03-31T03:45:58.429Z,93269.88
2018-03-31T03:48:24.586Z,93269.73
2018-03-31T03:50:50.693Z,93263.80
2018-03-31T03:53:16.817Z,93271.80
2018-03-31T03:55:42.976Z,93266.83
2018-03-31T03:58:09.102Z,93270.41
2018-03-31T04:00:35.229Z,93269.58
2018-03-31T04:03:01.728Z,93271.36
2018-03-31T04:05:27.833Z,93261.35
2018-03-31T04:07:53.962Z,93258.14
2018-03-31T04:10:20.052Z,93271.13
2018-03-31T04:12:46.146Z,93279.52
2018-03-31T04:15:15.755Z,93275.41
2018-03-31T04:17:41.836Z,93279.58
2018-03-31T04:20:07.960Z,93277.80
2018-03-31T04:22:34.064Z,93280.61
2018-03-31T04:25:04.183Z,93285.30
2018-03-31T04:27:30.279Z,93283.81
2018-03-31T04:29:56.390Z,93283.14
2018-03-31T04:32:22.541Z,93293.69
2018-03-31T04:34:55.563Z,93288.20
2018-03-31T04:37:21.797Z,93285.12
2018-03-31T04:39:47.922Z,93285.48
2018-03-31T04:42:14.005Z,93286.37
2018-03-31T04:44:40.163Z,93276.75
2018-03-31T04:47:06.318Z,93288.34
2018-03-31T04:49:32.472Z,93290.91
2018-03-31T04:51:58.611Z,93289.41
2018-03-31T04:54:24.717Z,93297.11
2018-03-31T04:56:50.855Z,93299.69
2018-03-31T04:59:16.987Z,93305.34
2018-03-31T05:01:43.442Z,93305.02
2018-03-31T05:04:09.675Z,93315.67
2018-03-31T05:06:35.857Z,93319.10
2018-03-31T05:09:02.161Z,93328.90
2018-03-31T05:11:28.351Z,93330.71
2018-03-31T05:13:54.782Z,93328.11
2018-03-31T05:16:21.996Z,93345.23
2018-03-31T05:18:48.316Z,93335.44
2018-03-31T05:21:14.949Z,93337.28
2018-03-31T05:23:41.751Z,93337.89
2018-03-31T05:26:09.788Z,93330.14
2018-03-31T05:28:36.132Z,93341.34
2018-03-31T05:31:02.246Z,93343.46
2018-03-31T05:33:28.430Z,93345.66
2018-03-31T05:35:54.886Z,93339.14
2018-03-31T05:38:22.280Z,93345.17
2018-03-31T05:40:48.453Z,93342.16
2018-03-31T05:43:14.825Z,93336.38
2018-03-31T05:45:41.028Z,93327.83
2018-03-31T05:48:08.196Z,93326.11
2018-03-31T05:50:36.160Z,93330.67
2018-03-31T05:53:03.344Z,93324.62
2018-03-31T05:55:30.111Z,93328.40
2018-03-31T05:57:56.524Z,93322.27
2018-03-31T06:00:22.764Z,93321.99
2018-03-31T06:02:50.058Z,93312.55
2018-03-31T06:05:20.486Z,93312.75
2018-03-31T06:07:47.100Z,93313.27
2018-03-31T06:10:13.457Z,93311.03
2018-03-31T06:12:39.802Z,93322.83
2018-03-31T06:15:12.466Z,93330.20
2018-03-31T06:17:38.718Z,93328.08
2018-03-31T06:20:05.237Z,93331.44
2018-03-31T06:22:31.485Z,93326.08
2018-03-31T06:24:57.679Z,93315.79
2018-03-31T06:27:23.873Z,93314.63
2018-03-31T06:29:50.086Z,93294.20
2018-03-31T06:32:16.290Z,93295.91
2018-03-31T06:34:42.548Z,93288.88
2018-03-31T06:37:08.761Z,93300.62
2018-03-31T06:39:35.199Z,93302.93
2018-03-31T06:42:01.387Z,93307.59
2018-03-31T06:44:30.835Z,93297.89
2018-03-31T06:46:57.032Z,93283.59
2018-03-31T06:49:23.164Z,93279.83
2018-03-31T06:51:49.279Z,93266.78
2018-03-31T06:54:15.503Z,93263.95
2018-03-31T06:56:41.671Z,93275.41
2018-03-31T06:59:07.817Z,93264.63
2018-03-31T07:01:34.048Z,93272.19
2018-03-31T07:04:00.205Z,93276.25
2018-03-31T07:06:26.336Z,93270.14
2018-03-31T07:08:53.385Z,93261.85
2018-03-31T07:11:19.541Z,93263.48
2018-03-31T07:13:45.645Z,93258.16
2018-03-31T07:16:13.825Z,93256.95
2018-03-31T07:18:39.931Z,93264.02
2018-03-31T07:21:06.336Z,93256.84
2018-03-31T07:23:32.632Z,93273.13
2018-03-31T07:25:58.805Z,93274.03
2018-03-31T07:28:24.940Z,93276.47
2018-03-31T07:30:51.158Z,93289.71
2018-03-31T07:33:17.271Z,93293.03
2018-03-31T07:35:44.503Z,93291.30
2018-03-31T07:38:10.708Z,93289.59
2018-03-31T07:40:36.808Z,93289.41
2018-03-31T07:43:03.124Z,93279.45
2018-03-31T07:45:29.473Z,93287.03
2018-03-31T07:47:55.655Z,93297.70
2018-03-31T07:50:21.779Z,93287.39
2018-03-31T07:52:48.069Z,93290.08
2018-03-31T07:55:14.221Z,93277.12
2018-03-31T07:57:40.354Z,93277.74
2018-03-31T08:00:06.545Z,93274.61
2018-03-31T08:02:32.667Z,93274.59
2018-03-31T08:04:58.989Z,93282.42
2018-03-31T08:07:25.139Z,93283.27
2018-03-31T08:09:51.445Z,93272.55
2018-03-31T08:12:17.546Z,93270.14
2018-03-31T08:14:44.999Z,93259.73
2018-03-31T08:17:11.758Z,93258.17
2018-03-31T08:19:37.923Z,93261.46
2018-03-31T08:22:04.115Z,93275.00
2018-03-31T08:24:31.334Z,93262.67
2018-03-31T08:26:57.475Z,93260.56
2018-03-31T08:29:23.772Z,93262.63
2018-03-31T08:31:49.955Z,93257.56
2018-03-31T08:34:16.287Z,93259.09
2018-03-31T08:36:42.473Z,93260.52
2018-03-31T08:39:08.636Z,93253.38
2018-03-31T08:41:35.118Z,93258.83
2018-03-31T08:44:01.417Z,93254.95
2018-03-31T08:46:27.681Z,93261.39
2018-03-31T08:48:53.846Z,93250.73
2018-03-31T08:51:20.037Z,93250.84
2018-03-31T08:53:46.131Z,93251.82
2018-03-31T08:56:12.337Z,93234.22
2018-03-31T08:58:38.744Z,93244.12
2018-03-31T09:01:04.963Z,93231.05
2018-03-31T09:03:31.056Z,93240.23
2018-03-31T09:05:57.331Z,93236.89
2018-03-31T09:08:23.486Z,93223.97
2018-03-31T09:10:49.637Z,93230.67
2018-03-31T09:13:15.837Z,93228.45
2018-03-31T09:15:43.091Z,93220.45
2018-03-31T09:18:09.209Z,93225.33
2018-03-31T09:20:35.454Z,93222.23
2018-03-31T09:23:01.601Z,93214.33
2018-03-31T09:25:28.150Z,93213.14
2018-03-31T09:27:54.634Z,93224.67
2018-03-31T09:30:20.773Z,93224.56
2018-03-31T09:32:46.939Z,93218.81
2018-03-31T09:35:14.701Z,93205.26
2018-03-31T09:37:42.619Z,93192.80
2018-03-31T09:40:09.721Z,93193.02
2018-03-31T09:42:36.128Z,93190.05
2018-03-31T09:45:02.315Z,93185.91
2018-03-31T09:47:28.521Z,93181.41
2018-03-31T09:49:54.855Z,93174.14
2018-03-31T09:52:21.017Z,93185.89
2018-03-31T09:54:48.937Z,93185.38
2018-03-31T09:57:15.115Z,93172.42
2018-03-31T09:59:41.241Z,93185.99
2018-03-31T10:02:07.395Z,93173.13
2018-03-31T10:04:38.337Z,93162.76
2018-03-31T10:07:05.563Z,93150.68
2018-03-31T10:09:31.972Z,93146.53
2018-03-31T10:11:58.242Z,93151.23
2018-03-31T10:14:24.496Z,93151.33
2018-03-31T10:16:50.758Z,93153.33
2018-03-31T10:19:17.065Z,93131.05
2018-03-31T10:21:43.478Z,93147.18
2018-03-31T10:24:09.867Z,93136.66
2018-03-31T10:26:36.238Z,93135.55
2018-03-31T10:29:02.668Z,93136.59
2018-03-31T10:31:28.898Z,93132.64
2018-03-31T10:33:55.151Z,93136.80
2018-03-31T10:36:21.538Z,93124.72
2018-03-31T10:38:48.437Z,93106.70
2018-03-31T10:41:14.763Z,93116.67
2018-03-31T10:43:41.055Z,93109.20
2018-03-31T10:46:07.287Z,93095.84
2018-03-31T10:48:34.564Z,93092.66
2018-03-31T10:51:00.899Z,93090.05
2018-03-31T10:53:27.152Z,93077.00
2018-03-31T10:55:53.444Z,93078.42
2018-03-31T10:58:19.744Z,93086.88
2018-03-31T11:00:45.940Z,93093.14
2018-03-31T11:03:12.322Z,93064.59
2018-03-31T11:05:38.608Z,93054.07
2018-03-31T11:08:04.804Z,93051.22
2018-03-31T11:10:31.136Z,93050.47
2018-03-31T11:12:57.452Z,93040.61
2018-03-31T11:15:23.702Z,93044.78
2018-03-31T11:17:49.934Z,93042.83
2018-03-31T11:20:16.086Z,93026.26
2018-03-31T11:22:42.688Z,93035.98
2018-03-31T11:25:08.998Z,93024.95
2018-03-31T11:27:35.126Z,92999.93
2018-03-31T11:30:01.380Z,93021.63
2018-03-31T11:32:28.458Z,93011.06
2018-03-31T11:34:58.677Z,93017.69
2018-03-31T11:37:25.212Z,93013.72
2018-03-31T11:39:51.379Z,93007.04
2018-03-31T11:42:17.478Z,93005.25
2018-03-31T11:44:44.415Z,93013.25
2018-03-31T11:47:10.932Z,93008.09
2018-03-31T11:49:37.472Z,93013.51
2018-03-31T11:52:03.783Z,93006.72
2018-03-31T11:54:30.817Z,92997.95
2018-03-31T11:56:57.052Z,92995.72
2018-03-31T11:59:23.536Z,92993.34
2018-03-31T12:01:49.929Z,92975.91
2018-03-31T12:12:19.217Z,93012.02
2018-03-31T12:14:45.828Z,92996.97
2018-03-31T12:17:12.631Z,93002.66
2018-03-31T12:19:39.400Z,92998.05
2018-03-31T12:22:06.612Z,92980.30
2018-03-31T12:24:33.718Z,92982.23
2018-03-31T12:27:00.417Z,92969.17
2018-03-31T12:29:28.230Z,92969.17
2018-03-31T12:31:55.085Z,92965.16
2018-03-31T12:34:21.541Z,92954.35
2018-03-31T12:36:48.027Z,92940.99
2018-03-31T12:39:14.775Z,92929.39
2018-03-31T12:41:41.292Z,92917.99
2018-03-31T12:44:08.386Z,92912.94
2018-03-31T12:46:35.781Z,92913.23
2018-03-31T12:49:02.664Z,92916.05
2018-03-31T12:51:30.746Z,92891.57
2018-03-31T12:53:57.294Z,92899.20
2018-03-31T12:56:23.955Z,92887.06
2018-03-31T12:58:50.315Z,92881.98
2018-03-31T13:01:16.800Z,92876.62
2018-03-31T13:03:43.499Z,92892.77
2018-03-31T13:06:09.914Z,92870.50
2018-03-31T13:08:36.258Z,92876.45
2018-03-31T13:11:02.769Z,92872.11
2018-03-31T13:13:29.315Z,92876.02
2018-03-31T13:15:56.337Z,92853.05
2018-03-31T13:18:22.972Z,92876.49
2018-03-31T13:20:49.429Z,92858.33
2018-03-31T13:23:16.047Z,92853.56
2018-03-31T13:25:42.455Z,92851.39
2018-03-31T13:28:09.204Z,92855.48
2018-03-31T13:30:35.938Z,92860.39
2018-03-31T13:33:02.207Z,92848.57
2018-03-31T13:35:29.581Z,92832.06
2018-03-31T13:37:55.969Z,92844.97
2018-03-31T13:40:22.654Z,92838.25
2018-03-31T13:42:49.064Z,92825.55
2018-03-31T13:45:15.484Z,92824.31
2018-03-31T13:47:42.148Z,92829.20
2018-03-31T13:50:08.794Z,92820.57
2018-03-31T13:52:35.870Z,92818.66
2018-03-31T13:55:02.392Z,92813.47
2018-03-31T13:57:28.583Z,92818.09
2018-03-31T13:59:54.695Z,92809.20
2018-03-31T14:02:20.882Z,92804.90
2018-03-31T14:04:47.148Z,92803.31
2018-03-31T14:07:13.397Z,92810.50
2018-03-31T14:09:39.613Z,92817.70
2018-03-31T14:12:05.787Z,92823.98
2018-03-31T14:14:31.923Z,92805.23
2018-03-31T14:16:58.145Z,92801.00
2018-03-31T14:19:24.465Z,92814.16
2018-03-31T14:21:50.598Z,92792.29
2018-03-31T14:24:16.934Z,92805.88
2018-03-31T14:26:43.136Z,92791.06
2018-03-31T14:29:09.348Z,92791.84
2018-03-31T14:31:35.549Z,92800.86
2018-03-31T14:34:01.868Z,92802.17
2018-03-31T14:36:28.167Z,92791.89
2018-03-31T14:38:54.471Z,92812.31
2018-03-31T14:41:21.291Z,92791.97
2018-03-31T14:43:48.148Z,92783.23
2018-03-31T14:46:14.445Z,92794.11
2018-03-31T14:48:40.599Z,92787.20
2018-03-31T14:51:06.769Z,92777.08
2018-03-31T14:53:33.147Z,92784.75
2018-03-31T14:55:59.439Z,92767.47
2018-03-31T14:58:25.752Z,92758.05
2018-03-31T15:00:52.124Z,92772.11
2018-03-31T15:03:19.722Z,92766.23
2018-03-31T15:05:47.190Z,92755.75
2018-03-31T15:08:13.859Z,92750.19
2018-03-31T15:10:40.105Z,92759.63
2018-03-31T15:13:07.030Z,92762.58
2018-03-31T15:15:35.064Z,92757.20
2018-03-31T15:18:01.489Z,92749.44
2018-03-31T15:20:27.731Z,92746.64
2018-03-31T15:22:54.030Z,92741.66
2018-03-31T15:25:20.342Z,92752.27
2018-03-31T15:27:46.721Z,92738.81
2018-03-31T15:30:13.265Z,92732.98
2018-03-31T15:32:39.903Z,92738.83
2018-03-31T15:35:07.323Z,92737.98
2018-03-31T15:37:34.206Z,92746.01
2018-03-31T15:40:01.649Z,92729.75
2018-03-31T15:42:30.233Z,92736.47
2018-03-31T15:44:57.348Z,92729.69
2018-03-31T15:47:24.299Z,92743.70
2018-03-31T15:49:51.233Z,92746.28
2018-03-31T15:52:18.188Z,92745.09
2018-03-31T15:54:44.422Z,92725.25
2018-03-31T15:57:10.927Z,92724.70
2018-03-31T15:59:37.120Z,92726.03
2018-03-31T16:02:04.153Z,92721.75
2018-03-31T16:04:30.483Z,92727.52
2018-03-31T16:06:56.770Z,92695.38
2018-03-31T16:09:25.538Z,92691.53
2018-03-31T16:11:52.028Z,92715.42
2018-03-31T16:14:25.698Z,92701.75
2018-03-31T16:16:52.787Z,92711.34
2018-03-31T16:19:19.647Z,92721.64
2018-03-31T16:21:46.474Z,92709.11
2018-03-31T16:24:14.695Z,92690.74
2018-03-31T16:26:41.985Z,92697.76
2018-03-31T16:29:10.969Z,92681.41
2018-03-31T16:31:37.954Z,92682.62
2018-03-31T16:34:06.482Z,92666.38
2018-03-31T16:36:33.107Z,92643.31
2018-03-31T16:38:59.614Z,92642.50
2018-03-31T16:41:26.061Z,92633.17
2018-03-31T16:43:52.479Z,92647.11
2018-03-31T16:46:18.967Z,92631.50
2018-03-31T16:48:45.448Z,92635.12
2018-03-31T16:51:12.232Z,92632.28
2018-03-31T16:53:38.778Z,92638.45
2018-03-31T16:56:05.197Z,92628.48
2018-03-31T16:58:31.431Z,92629.98
2018-03-31T17:00:57.678Z,92616.36
2018-03-31T17:03:24.543Z,92624.70
2018-03-31T17:05:50.871Z,92627.59
2018-03-31T17:08:17.048Z,92589.47
2018-03-31T17:10:43.415Z,92612.72
2018-03-31T17:13:09.974Z,92614.66
2018-03-31T17:15:36.387Z,92618.27
2018-03-31T17:18:02.666Z,92616.33
2018-03-31T17:20:29.246Z,92613.34
2018-03-31T17:22:55.653Z,92606.91
2018-03-31T17:25:22.264Z,92599.91
2018-03-31T17:27:48.630Z,92618.70
2018-03-31T17:30:15.763Z,92613.15
2018-03-31T17:32:42.448Z,92622.55
2018-03-31T17:35:08.770Z,92612.99
2018-03-31T17:37:35.436Z,92596.53
2018-03-31T17:40:01.770Z,92589.86
2018-03-31T17:42:28.340Z,92598.50
2018-03-31T17:44:54.769Z,92582.33
2018-03-31T17:47:23.838Z,92561.81
2018-03-31T17:49:54.890Z,92577.59
2018-03-31T17:52:21.818Z,92557.88
2018-03-31T17:54:48.297Z,92555.09
2018-03-31T17:57:14.663Z,92553.92
2018-03-31T17:59:41.030Z,92557.62
2018-03-31T18:02:07.599Z,92564.47
2018-03-31T18:04:34.160Z,92547.44
2018-03-31T18:07:01.220Z,92561.13
2018-03-31T18:09:27.594Z,92564.73
2018-03-31T18:11:54.048Z,92569.08
2018-03-31T18:14:20.618Z,92569.97
2018-03-31T18:16:46.947Z,92552.03
2018-03-31T18:19:13.750Z,92558.92
2018-03-31T18:21:40.491Z,92560.52
2018-03-31T18:24:06.981Z,92538.28
2018-03-31T18:26:34.378Z,92490.77
2018-03-31T18:29:01.225Z,92523.13
2018-03-31T18:31:28.811Z,92514.62
2018-03-31T18:33:55.863Z,92510.78
2018-03-31T18:36:23.141Z,92521.91
2018-03-31T18:38:50.117Z,92492.67
2018-03-31T18:41:16.640Z,92498.98
2018-03-31T18:43:44.199Z,92506.20
2018-03-31T18:46:11.583Z,92508.54
2018-03-31T18:48:38.383Z,92502.00
2018-03-31T18:51:05.894Z,92510.00
2018-03-31T18:53:34.439Z,92513.72
2018-03-31T18:56:01.641Z,92520.25
2018-03-31T18:58:28.661Z,92509.40
2018-03-31T19:00:55.235Z,92503.13
2018-03-31T19:03:21.806Z,92487.08
2018-03-31T19:05:48.970Z,92508.67
2018-03-31T19:08:15.517Z,92513.31
2018-03-31T19:10:42.929Z,92489.03
2018-03-31T19:13:09.578Z,92505.88
2018-03-31T19:15:36.015Z,92488.07
2018-03-31T19:18:02.559Z,92486.86
2018-03-31T19:20:28.941Z,92478.02
2018-03-31T19:22:56.169Z,92450.91
2018-03-31T19:25:29.228Z,92452.59
2018-03-31T19:27:56.229Z,92443.02
2018-03-31T19:30:23.065Z,92432.27
2018-03-31T19:32:49.762Z,92432.96
2018-03-31T19:35:16.802Z,92420.73
2018-03-31T19:37:43.806Z,92413.23
2018-03-31T19:40:10.214Z,92411.28
2018-03-31T19:42:36.605Z,92413.16
2018-03-31T19:45:02.908Z,92412.53
2018-03-31T19:47:29.664Z,92405.01
2018-03-31T19:49:57.393Z,92395.14
2018-03-31T19:52:24.427Z,92380.08
2018-03-31T19:54:51.448Z,92369.64
2018-03-31T19:57:20.172Z,92373.70
2018-03-31T19:59:48.639Z,92365.27
2018-03-31T20:02:15.997Z,92381.95
2018-03-31T20:04:42.389Z,92382.76
2018-03-31T20:07:09.010Z,92373.67
2018-03-31T20:09:36.172Z,92350.06
2018-03-31T20:12:03.361Z,92328.22
2018-03-31T20:14:31.331Z,92359.13
2018-03-31T20:16:58.431Z,92344.98
2018-03-31T20:19:24.991Z,92346.02
2018-03-31T20:21:52.305Z,92330.95
2018-03-31T20:24:18.766Z,92321.59
2018-03-31T20:26:45.671Z,92305.25
2018-03-31T20:29:12.325Z,92310.13
2018-03-31T20:31:39.252Z,92299.31
2018-03-31T20:34:05.776Z,92247.13
2018-03-31T20:36:32.467Z,92268.45
2018-03-31T20:38:58.984Z,92249.87
2018-03-31T20:41:25.526Z,92235.95
2018-03-31T20:43:52.232Z,92256.67
2018-03-31T20:46:19.624Z,92230.41
2018-03-31T20:48:46.205Z,92190.09
2018-03-31T20:51:12.912Z,92127.97
2018-03-31T20:53:39.534Z,92172.91
2018-03-31T20:56:07.392Z,92189.90
2018-03-31T20:58:33.896Z,92147.73
2018-03-31T21:01:00.526Z,92167.03
2018-03-31T21:03:26.990Z,92167.75
2018-03-31T21:05:53.760Z,92136.36
2018-03-31T21:08:20.060Z,92100.14
2018-03-31T21:10:46.415Z,92107.47
2018-03-31T21:13:12.984Z,92152.95
2018-03-31T21:15:39.468Z,92102.09
2018-03-31T21:18:05.914Z,92115.17
2018-03-31T21:20:32.226Z,92061.97
2018-03-31T21:22:58.696Z,92108.16
2018-03-31T21:25:25.358Z,92109.12
2018-03-31T21:27:52.163Z,92144.33
2018-03-31T21:30:18.393Z,92117.84
2018-03-31T21:32:44.834Z,92133.98
2018-03-31T21:35:11.186Z,92138.46
2018-03-31T21:37:37.400Z,92127.22
2018-03-31T21:40:03.774Z,92091.36
2018-03-31T21:42:30.572Z,92118.84
2018-03-31T21:44:56.942Z,92098.07
2018-03-31T21:47:23.295Z,92077.30
2018-03-31T21:49:49.585Z,92092.30
2018-03-31T21:52:15.773Z,92119.08
2018-03-31T21:54:42.119Z,92083.66
2018-03-31T21:57:08.503Z,92140.27
2018-03-31T21:59:35.872Z,92097.59
2018-03-31T22:02:02.095Z,92105.94
2018-03-31T22:04:28.339Z,92124.20
2018-03-31T22:06:54.765Z,92093.45
2018-03-31T22:09:20.949Z,92128.00
2018-03-31T22:11:47.193Z,92142.01
2018-03-31T22:14:19.458Z,92154.89
2018-03-31T22:16:45.757Z,92109.63
2018-03-31T22:19:11.827Z,92125.36
2018-03-31T22:21:38.008Z,92122.72
2018-03-31T22:24:04.203Z,92106.27
2018-03-31T22:26:30.403Z,92139.30
2018-03-31T22:28:56.600Z,92124.25
2018-03-31T22:31:22.796Z,92136.48
2018-03-31T22:33:48.890Z,92160.38
2018-03-31T22:36:15.125Z,92132.58
2018-03-31T22:38:41.369Z,92132.84
2018-03-31T22:41:07.547Z,92146.80
2018-03-31T22:43:33.639Z,92120.39
2018-03-31T22:45:59.942Z,92115.75
2018-03-31T22:48:26.080Z,92143.78
2018-03-31T22:50:52.267Z,92156.75
2018-03-31T22:53:18.441Z,92136.34
2018-03-31T22:55:44.663Z,92140.77
2018-03-31T22:58:10.794Z,92127.81
2018-03-31T23:00:36.947Z,92132.77
2018-03-31T23:03:03.095Z,92136.20
2018-03-31T23:05:29.482Z,92120.66
2018-03-31T23:07:55.758Z,92125.69
2018-03-31T23:10:21.834Z,92116.92
2018-03-31T23:12:47.987Z,92119.15
2018-03-31T23:15:14.199Z,92094.66
2018-03-31T23:17:40.400Z,92094.99
2018-03-31T23:20:07.026Z,92118.86
2018-03-31T23:22:33.294Z,92072.00
2018-03-31T23:24:59.431Z,92113.69
2018-03-31T23:27:25.558Z,92117.78
2018-03-31T23:29:51.629Z,92070.75
2018-03-31T23:32:17.808Z,92075.25
2018-03-31T23:34:43.918Z,92044.88
2018-03-31T23:37:10.436Z,92064.38
2018-03-31T23:39:36.716Z,92048.81
2018-03-31T23:42:03.048Z,92048.78
2018-03-31T23:44:29.269Z,92039.48
2018-03-31T23:46:55.554Z,92047.38
2018-03-31T23:49:21.784Z,92063.55
2018-03-31T23:51:47.889Z,92065.34
2018-03-31T23:54:14.061Z,92068.00
2018-03-31T23:56:40.186Z,92047.74
2018-03-31T23:59:06.309Z,92056.47
